sensor_id;sensor_type;location;lat;lon;timestamp;P1;durP1;ratioP1;P2;durP2;ratioP2
31770;SDS011;18343;50.152;8.182;2023-01-04T00:01:06;29.58;;;11.15;;
31770;SDS011;18343;50.152;8.182;2023-01-04T00:03:56;16.90;;;10.43;;
31770;SDS011;18343;50.152;8.182;2023-01-04T00:06:40;21.42;;;11.35;;
31770;SDS011;18343;50.152;8.182;2023-01-04T00:09:25;18.50;;;10.38;;
31770;SDS011;18343;50.152;8.182;2023-01-04T00:12:10;21.52;;;11.02;;
31770;SDS011;18343;50.152;8.182;2023-01-04T00:14:55;15.13;;;9.63;;
31770;SDS011;18343;50.152;8.182;2023-01-04T00:17:40;21.98;;;10.93;;
31770;SDS011;18343;50.152;8.182;2023-01-04T00:20:25;21.25;;;10.30;;
31770;SDS011;18343;50.152;8.182;2023-01-04T00:23:09;18.23;;;8.75;;
31770;SDS011;18343;50.152;8.182;2023-01-04T00:25:54;14.80;;;8.55;;
31770;SDS011;18343;50.152;8.182;2023-01-04T00:28:38;16.45;;;9.57;;
31770;SDS011;18343;50.152;8.182;2023-01-04T00:31:25;21.48;;;10.65;;
31770;SDS011;18343;50.152;8.182;2023-01-04T00:34:11;13.00;;;6.40;;
31770;SDS011;18343;50.152;8.182;2023-01-04T00:36:58;16.55;;;8.43;;
31770;SDS011;18343;50.152;8.182;2023-01-04T00:39:43;16.52;;;8.40;;
31770;SDS011;18343;50.152;8.182;2023-01-04T00:42:27;14.98;;;7.90;;
31770;SDS011;18343;50.152;8.182;2023-01-04T00:45:11;14.23;;;7.95;;
31770;SDS011;18343;50.152;8.182;2023-01-04T00:47:57;17.75;;;8.57;;
31770;SDS011;18343;50.152;8.182;2023-01-04T00:50:42;14.93;;;7.97;;
31770;SDS011;18343;50.152;8.182;2023-01-04T00:53:28;12.02;;;7.97;;
31770;SDS011;18343;50.152;8.182;2023-01-04T00:56:12;16.50;;;7.82;;
31770;SDS011;18343;50.152;8.182;2023-01-04T00:58:58;18.13;;;8.77;;
31770;SDS011;18343;50.152;8.182;2023-01-04T01:01:44;15.60;;;7.97;;
31770;SDS011;18343;50.152;8.182;2023-01-04T01:04:31;20.67;;;9.02;;
31770;SDS011;18343;50.152;8.182;2023-01-04T01:07:16;16.05;;;8.93;;
31770;SDS011;18343;50.152;8.182;2023-01-04T01:10:00;19.58;;;9.57;;
31770;SDS011;18343;50.152;8.182;2023-01-04T01:12:45;17.70;;;9.38;;
31770;SDS011;18343;50.152;8.182;2023-01-04T01:15:29;16.05;;;8.98;;
31770;SDS011;18343;50.152;8.182;2023-01-04T01:18:14;15.95;;;9.80;;
31770;SDS011;18343;50.152;8.182;2023-01-04T01:21:02;17.77;;;9.50;;
31770;SDS011;18343;50.152;8.182;2023-01-04T01:23:48;16.35;;;10.40;;
31770;SDS011;18343;50.152;8.182;2023-01-04T01:26:33;16.50;;;9.75;;
31770;SDS011;18343;50.152;8.182;2023-01-04T01:29:17;17.48;;;10.00;;
31770;SDS011;18343;50.152;8.182;2023-01-04T01:32:02;17.85;;;9.88;;
31770;SDS011;18343;50.152;8.182;2023-01-04T01:34:47;19.27;;;9.35;;
31770;SDS011;18343;50.152;8.182;2023-01-04T01:37:33;17.42;;;10.00;;
31770;SDS011;18343;50.152;8.182;2023-01-04T01:40:17;17.75;;;9.55;;
31770;SDS011;18343;50.152;8.182;2023-01-04T01:43:02;16.50;;;9.35;;
31770;SDS011;18343;50.152;8.182;2023-01-04T01:45:49;21.00;;;9.50;;
31770;SDS011;18343;50.152;8.182;2023-01-04T01:48:37;18.48;;;9.27;;
31770;SDS011;18343;50.152;8.182;2023-01-04T01:51:22;17.40;;;9.25;;
31770;SDS011;18343;50.152;8.182;2023-01-04T01:54:12;23.30;;;9.10;;
31770;SDS011;18343;50.152;8.182;2023-01-04T01:57:00;19.75;;;9.90;;
31770;SDS011;18343;50.152;8.182;2023-01-04T01:59:49;14.32;;;9.23;;
31770;SDS011;18343;50.152;8.182;2023-01-04T02:02:39;17.42;;;9.43;;
31770;SDS011;18343;50.152;8.182;2023-01-04T02:05:32;14.65;;;8.55;;
31770;SDS011;18343;50.152;8.182;2023-01-04T02:08:18;19.42;;;10.32;;
31770;SDS011;18343;50.152;8.182;2023-01-04T02:11:07;18.85;;;9.20;;
31770;SDS011;18343;50.152;8.182;2023-01-04T02:13:52;17.60;;;9.98;;
31770;SDS011;18343;50.152;8.182;2023-01-04T02:16:40;14.75;;;7.95;;
31770;SDS011;18343;50.152;8.182;2023-01-04T02:26:58;17.00;;;9.23;;
31770;SDS011;18343;50.152;8.182;2023-01-04T02:30:15;15.68;;;9.00;;
31770;SDS011;18343;50.152;8.182;2023-01-04T02:33:35;17.30;;;9.00;;
31770;SDS011;18343;50.152;8.182;2023-01-04T02:36:32;19.58;;;9.05;;
31770;SDS011;18343;50.152;8.182;2023-01-04T02:39:24;16.55;;;8.88;;
31770;SDS011;18343;50.152;8.182;2023-01-04T02:42:24;18.13;;;9.55;;
31770;SDS011;18343;50.152;8.182;2023-01-04T02:45:20;23.45;;;8.57;;
31770;SDS011;18343;50.152;8.182;2023-01-04T02:48:09;13.93;;;7.97;;
31770;SDS011;18343;50.152;8.182;2023-01-04T02:50:56;13.23;;;8.35;;
31770;SDS011;18343;50.152;8.182;2023-01-04T02:53:42;13.95;;;8.35;;
31770;SDS011;18343;50.152;8.182;2023-01-04T02:56:29;13.02;;;8.15;;
31770;SDS011;18343;50.152;8.182;2023-01-04T02:59:45;14.18;;;8.07;;
31770;SDS011;18343;50.152;8.182;2023-01-04T03:02:53;10.90;;;7.35;;
31770;SDS011;18343;50.152;8.182;2023-01-04T03:06:00;10.88;;;7.28;;
31770;SDS011;18343;50.152;8.182;2023-01-04T03:08:56;14.88;;;7.93;;
31770;SDS011;18343;50.152;8.182;2023-01-04T03:11:48;12.07;;;7.57;;
31770;SDS011;18343;50.152;8.182;2023-01-04T03:14:39;12.32;;;7.57;;
31770;SDS011;18343;50.152;8.182;2023-01-04T03:17:30;15.30;;;8.15;;
31770;SDS011;18343;50.152;8.182;2023-01-04T03:20:18;10.82;;;6.85;;
31770;SDS011;18343;50.152;8.182;2023-01-04T03:23:07;14.32;;;7.40;;
31770;SDS011;18343;50.152;8.182;2023-01-04T03:25:56;9.93;;;6.63;;
31770;SDS011;18343;50.152;8.182;2023-01-04T03:28:45;13.30;;;6.35;;
31770;SDS011;18343;50.152;8.182;2023-01-04T03:31:33;10.43;;;6.53;;
31770;SDS011;18343;50.152;8.182;2023-01-04T03:34:23;13.13;;;6.90;;
31770;SDS011;18343;50.152;8.182;2023-01-04T03:37:09;14.65;;;5.45;;
31770;SDS011;18343;50.152;8.182;2023-01-04T03:40:06;9.73;;;5.65;;
31770;SDS011;18343;50.152;8.182;2023-01-04T03:43:04;10.13;;;6.00;;
31770;SDS011;18343;50.152;8.182;2023-01-04T03:45:56;11.95;;;6.25;;
31770;SDS011;18343;50.152;8.182;2023-01-04T03:48:49;10.43;;;6.13;;
31770;SDS011;18343;50.152;8.182;2023-01-04T03:51:42;9.93;;;6.35;;
31770;SDS011;18343;50.152;8.182;2023-01-04T03:54:30;11.15;;;5.55;;
31770;SDS011;18343;50.152;8.182;2023-01-04T03:57:19;14.30;;;6.40;;
31770;SDS011;18343;50.152;8.182;2023-01-04T04:00:07;10.15;;;5.60;;
31770;SDS011;18343;50.152;8.182;2023-01-04T04:02:56;8.63;;;5.32;;
31770;SDS011;18343;50.152;8.182;2023-01-04T04:05:42;9.00;;;5.35;;
31770;SDS011;18343;50.152;8.182;2023-01-04T04:08:28;10.95;;;5.82;;
31770;SDS011;18343;50.152;8.182;2023-01-04T04:11:13;12.15;;;5.90;;
31770;SDS011;18343;50.152;8.182;2023-01-04T04:13:59;16.30;;;6.57;;
31770;SDS011;18343;50.152;8.182;2023-01-04T04:16:44;8.80;;;6.47;;
31770;SDS011;18343;50.152;8.182;2023-01-04T04:19:28;10.93;;;6.80;;
31770;SDS011;18343;50.152;8.182;2023-01-04T04:22:12;9.40;;;6.30;;
31770;SDS011;18343;50.152;8.182;2023-01-04T04:24:57;11.18;;;6.78;;
31770;SDS011;18343;50.152;8.182;2023-01-04T04:27:41;11.15;;;7.47;;
31770;SDS011;18343;50.152;8.182;2023-01-04T04:30:27;13.88;;;7.75;;
31770;SDS011;18343;50.152;8.182;2023-01-04T04:33:12;14.65;;;8.20;;
31770;SDS011;18343;50.152;8.182;2023-01-04T04:35:56;13.93;;;8.55;;
31770;SDS011;18343;50.152;8.182;2023-01-04T04:38:41;12.43;;;8.07;;
31770;SDS011;18343;50.152;8.182;2023-01-04T04:41:25;15.20;;;8.55;;
31770;SDS011;18343;50.152;8.182;2023-01-04T04:44:11;13.98;;;8.35;;
31770;SDS011;18343;50.152;8.182;2023-01-04T04:46:59;13.35;;;8.48;;
31770;SDS011;18343;50.152;8.182;2023-01-04T04:49:44;16.40;;;8.43;;
31770;SDS011;18343;50.152;8.182;2023-01-04T04:52:28;15.07;;;7.50;;
31770;SDS011;18343;50.152;8.182;2023-01-04T04:55:13;14.02;;;9.45;;
31770;SDS011;18343;50.152;8.182;2023-01-04T04:57:58;21.35;;;9.30;;
31770;SDS011;18343;50.152;8.182;2023-01-04T05:00:42;15.20;;;8.95;;
31770;SDS011;18343;50.152;8.182;2023-01-04T05:03:28;17.55;;;9.82;;
31770;SDS011;18343;50.152;8.182;2023-01-04T05:06:13;13.68;;;9.13;;
31770;SDS011;18343;50.152;8.182;2023-01-04T05:08:57;20.08;;;10.05;;
31770;SDS011;18343;50.152;8.182;2023-01-04T05:11:41;18.95;;;10.73;;
31770;SDS011;18343;50.152;8.182;2023-01-04T05:14:26;17.50;;;10.43;;
31770;SDS011;18343;50.152;8.182;2023-01-04T05:17:11;13.32;;;9.50;;
31770;SDS011;18343;50.152;8.182;2023-01-04T05:19:57;17.80;;;10.95;;
31770;SDS011;18343;50.152;8.182;2023-01-04T05:22:41;18.33;;;10.55;;
31770;SDS011;18343;50.152;8.182;2023-01-04T05:25:26;19.20;;;10.35;;
31770;SDS011;18343;50.152;8.182;2023-01-04T05:28:11;15.02;;;9.88;;
31770;SDS011;18343;50.152;8.182;2023-01-04T05:30:55;12.77;;;8.75;;
31770;SDS011;18343;50.152;8.182;2023-01-04T05:33:40;17.17;;;9.70;;
31770;SDS011;18343;50.152;8.182;2023-01-04T05:36:25;17.35;;;10.32;;
31770;SDS011;18343;50.152;8.182;2023-01-04T05:39:10;18.88;;;10.52;;
31770;SDS011;18343;50.152;8.182;2023-01-04T05:41:55;16.05;;;9.80;;
31770;SDS011;18343;50.152;8.182;2023-01-04T05:44:39;14.05;;;9.90;;
31770;SDS011;18343;50.152;8.182;2023-01-04T05:47:24;13.90;;;9.00;;
31770;SDS011;18343;50.152;8.182;2023-01-04T05:50:09;15.07;;;9.70;;
31770;SDS011;18343;50.152;8.182;2023-01-04T05:52:56;16.70;;;9.93;;
31770;SDS011;18343;50.152;8.182;2023-01-04T05:55:40;15.95;;;9.30;;
31770;SDS011;18343;50.152;8.182;2023-01-04T05:58:24;13.88;;;8.23;;
31770;SDS011;18343;50.152;8.182;2023-01-04T06:01:09;14.27;;;9.10;;
31770;SDS011;18343;50.152;8.182;2023-01-04T06:03:53;11.68;;;7.90;;
31770;SDS011;18343;50.152;8.182;2023-01-04T06:06:38;11.85;;;7.72;;
31770;SDS011;18343;50.152;8.182;2023-01-04T06:09:24;11.25;;;7.63;;
31770;SDS011;18343;50.152;8.182;2023-01-04T06:12:08;10.50;;;6.00;;
31770;SDS011;18343;50.152;8.182;2023-01-04T06:14:53;11.00;;;6.68;;
31770;SDS011;18343;50.152;8.182;2023-01-04T06:17:38;9.35;;;5.75;;
31770;SDS011;18343;50.152;8.182;2023-01-04T06:20:23;9.27;;;4.93;;
31770;SDS011;18343;50.152;8.182;2023-01-04T06:23:07;10.45;;;6.20;;
31770;SDS011;18343;50.152;8.182;2023-01-04T06:25:53;10.48;;;6.22;;
31770;SDS011;18343;50.152;8.182;2023-01-04T06:28:37;8.50;;;6.50;;
31770;SDS011;18343;50.152;8.182;2023-01-04T06:31:21;11.48;;;4.88;;
31770;SDS011;18343;50.152;8.182;2023-01-04T06:34:06;10.00;;;6.00;;
31770;SDS011;18343;50.152;8.182;2023-01-04T06:36:53;9.50;;;5.70;;
31770;SDS011;18343;50.152;8.182;2023-01-04T06:39:38;10.32;;;6.07;;
31770;SDS011;18343;50.152;8.182;2023-01-04T06:42:24;7.68;;;5.43;;
31770;SDS011;18343;50.152;8.182;2023-01-04T06:45:08;7.22;;;5.68;;
31770;SDS011;18343;50.152;8.182;2023-01-04T06:47:54;6.32;;;5.10;;
31770;SDS011;18343;50.152;8.182;2023-01-04T06:50:39;9.10;;;6.15;;
31770;SDS011;18343;50.152;8.182;2023-01-04T06:53:23;10.90;;;5.38;;
31770;SDS011;18343;50.152;8.182;2023-01-04T06:56:07;7.57;;;5.72;;
31770;SDS011;18343;50.152;8.182;2023-01-04T06:58:53;8.82;;;5.22;;
31770;SDS011;18343;50.152;8.182;2023-01-04T07:01:38;7.50;;;4.47;;
31770;SDS011;18343;50.152;8.182;2023-01-04T07:04:23;9.85;;;5.15;;
31770;SDS011;18343;50.152;8.182;2023-01-04T07:07:07;7.45;;;4.85;;
31770;SDS011;18343;50.152;8.182;2023-01-04T07:09:53;5.45;;;4.00;;
31770;SDS011;18343;50.152;8.182;2023-01-04T07:12:37;11.07;;;3.42;;
31770;SDS011;18343;50.152;8.182;2023-01-04T07:15:23;6.30;;;3.85;;
31770;SDS011;18343;50.152;8.182;2023-01-04T07:18:08;8.52;;;4.03;;
31770;SDS011;18343;50.152;8.182;2023-01-04T07:20:53;8.15;;;3.83;;
31770;SDS011;18343;50.152;8.182;2023-01-04T07:23:37;5.05;;;3.65;;
31770;SDS011;18343;50.152;8.182;2023-01-04T07:26:22;6.57;;;4.28;;
31770;SDS011;18343;50.152;8.182;2023-01-04T07:29:06;5.95;;;3.88;;
31770;SDS011;18343;50.152;8.182;2023-01-04T07:31:54;6.55;;;4.22;;
31770;SDS011;18343;50.152;8.182;2023-01-04T07:34:39;8.35;;;4.35;;
31770;SDS011;18343;50.152;8.182;2023-01-04T07:37:23;5.55;;;3.05;;
31770;SDS011;18343;50.152;8.182;2023-01-04T07:40:08;5.78;;;3.80;;
31770;SDS011;18343;50.152;8.182;2023-01-04T07:42:56;7.32;;;4.13;;
31770;SDS011;18343;50.152;8.182;2023-01-04T07:45:42;5.88;;;3.88;;
31770;SDS011;18343;50.152;8.182;2023-01-04T07:48:28;6.15;;;3.90;;
31770;SDS011;18343;50.152;8.182;2023-01-04T07:51:13;6.63;;;3.90;;
31770;SDS011;18343;50.152;8.182;2023-01-04T07:53:57;6.65;;;3.60;;
31770;SDS011;18343;50.152;8.182;2023-01-04T07:56:42;5.82;;;3.60;;
31770;SDS011;18343;50.152;8.182;2023-01-04T07:59:28;7.82;;;4.05;;
31770;SDS011;18343;50.152;8.182;2023-01-04T08:02:12;5.00;;;3.63;;
31770;SDS011;18343;50.152;8.182;2023-01-04T08:04:58;6.43;;;3.35;;
31770;SDS011;18343;50.152;8.182;2023-01-04T08:07:42;5.28;;;3.90;;
31770;SDS011;18343;50.152;8.182;2023-01-04T08:10:27;6.40;;;3.55;;
31770;SDS011;18343;50.152;8.182;2023-01-04T08:13:11;9.25;;;3.83;;
31770;SDS011;18343;50.152;8.182;2023-01-04T08:15:56;5.65;;;3.40;;
31770;SDS011;18343;50.152;8.182;2023-01-04T08:18:40;8.55;;;3.53;;
31770;SDS011;18343;50.152;8.182;2023-01-04T08:21:27;5.57;;;3.67;;
31770;SDS011;18343;50.152;8.182;2023-01-04T08:24:14;6.68;;;3.60;;
31770;SDS011;18343;50.152;8.182;2023-01-04T08:27:00;7.00;;;3.17;;
31770;SDS011;18343;50.152;8.182;2023-01-04T08:29:45;6.88;;;3.75;;
31770;SDS011;18343;50.152;8.182;2023-01-04T08:32:30;6.40;;;3.60;;
31770;SDS011;18343;50.152;8.182;2023-01-04T08:35:14;4.15;;;2.95;;
31770;SDS011;18343;50.152;8.182;2023-01-04T08:38:00;5.95;;;3.45;;
31770;SDS011;18343;50.152;8.182;2023-01-04T08:40:45;4.97;;;3.55;;
31770;SDS011;18343;50.152;8.182;2023-01-04T08:43:29;4.90;;;3.83;;
31770;SDS011;18343;50.152;8.182;2023-01-04T08:46:14;9.52;;;4.30;;
31770;SDS011;18343;50.152;8.182;2023-01-04T08:48:59;7.25;;;4.32;;
31770;SDS011;18343;50.152;8.182;2023-01-04T08:51:43;6.68;;;3.60;;
31770;SDS011;18343;50.152;8.182;2023-01-04T08:54:31;9.23;;;4.55;;
31770;SDS011;18343;50.152;8.182;2023-01-04T08:57:16;9.15;;;4.90;;
31770;SDS011;18343;50.152;8.182;2023-01-04T09:00:01;6.15;;;3.80;;
31770;SDS011;18343;50.152;8.182;2023-01-04T09:02:46;6.85;;;4.28;;
31770;SDS011;18343;50.152;8.182;2023-01-04T09:05:31;6.53;;;4.57;;
31770;SDS011;18343;50.152;8.182;2023-01-04T09:08:16;6.68;;;4.00;;
31770;SDS011;18343;50.152;8.182;2023-01-04T09:11:03;5.20;;;3.95;;
31770;SDS011;18343;50.152;8.182;2023-01-04T09:13:52;4.63;;;3.05;;
31770;SDS011;18343;50.152;8.182;2023-01-04T09:16:38;4.95;;;3.13;;
31770;SDS011;18343;50.152;8.182;2023-01-04T09:19:23;4.82;;;3.35;;
31770;SDS011;18343;50.152;8.182;2023-01-04T09:22:07;5.53;;;3.65;;
31770;SDS011;18343;50.152;8.182;2023-01-04T09:24:52;5.70;;;3.47;;
31770;SDS011;18343;50.152;8.182;2023-01-04T09:27:37;4.63;;;3.42;;
31770;SDS011;18343;50.152;8.182;2023-01-04T09:30:22;3.90;;;3.20;;
31770;SDS011;18343;50.152;8.182;2023-01-04T09:33:06;5.20;;;3.60;;
31770;SDS011;18343;50.152;8.182;2023-01-04T09:35:51;4.18;;;3.15;;
31770;SDS011;18343;50.152;8.182;2023-01-04T09:38:36;4.53;;;3.80;;
31770;SDS011;18343;50.152;8.182;2023-01-04T09:41:21;3.83;;;3.30;;
31770;SDS011;18343;50.152;8.182;2023-01-04T09:44:13;5.25;;;3.65;;
31770;SDS011;18343;50.152;8.182;2023-01-04T09:47:13;4.05;;;2.33;;
31770;SDS011;18343;50.152;8.182;2023-01-04T09:50:05;6.50;;;3.97;;
31770;SDS011;18343;50.152;8.182;2023-01-04T09:52:59;3.53;;;3.05;;
31770;SDS011;18343;50.152;8.182;2023-01-04T09:55:53;6.03;;;4.10;;
31770;SDS011;18343;50.152;8.182;2023-01-04T09:58:44;5.10;;;3.55;;
31770;SDS011;18343;50.152;8.182;2023-01-04T10:01:35;5.60;;;3.40;;
31770;SDS011;18343;50.152;8.182;2023-01-04T10:04:27;4.10;;;3.65;;
31770;SDS011;18343;50.152;8.182;2023-01-04T10:07:25;4.72;;;3.85;;
31770;SDS011;18343;50.152;8.182;2023-01-04T10:10:12;5.45;;;3.92;;
31770;SDS011;18343;50.152;8.182;2023-01-04T10:13:00;6.13;;;3.65;;
31770;SDS011;18343;50.152;8.182;2023-01-04T10:15:57;6.10;;;3.13;;
31770;SDS011;18343;50.152;8.182;2023-01-04T10:18:59;7.53;;;4.40;;
31770;SDS011;18343;50.152;8.182;2023-01-04T10:21:57;4.40;;;3.28;;
31770;SDS011;18343;50.152;8.182;2023-01-04T10:24:48;4.70;;;3.25;;
31770;SDS011;18343;50.152;8.182;2023-01-04T10:27:49;5.30;;;3.40;;
31770;SDS011;18343;50.152;8.182;2023-01-04T10:30:47;4.25;;;3.10;;
31770;SDS011;18343;50.152;8.182;2023-01-04T10:33:41;3.75;;;2.95;;
31770;SDS011;18343;50.152;8.182;2023-01-04T10:36:32;4.45;;;2.60;;
31770;SDS011;18343;50.152;8.182;2023-01-04T10:39:18;3.55;;;3.10;;
31770;SDS011;18343;50.152;8.182;2023-01-04T10:42:09;4.75;;;3.42;;
31770;SDS011;18343;50.152;8.182;2023-01-04T10:47:58;3.08;;;2.60;;
31770;SDS011;18343;50.152;8.182;2023-01-04T10:50:52;4.97;;;2.95;;
31770;SDS011;18343;50.152;8.182;2023-01-04T10:53:40;5.72;;;3.38;;
31770;SDS011;18343;50.152;8.182;2023-01-04T10:56:30;3.88;;;3.17;;
31770;SDS011;18343;50.152;8.182;2023-01-04T10:59:24;3.72;;;2.75;;
31770;SDS011;18343;50.152;8.182;2023-01-04T11:02:17;3.50;;;2.55;;
31770;SDS011;18343;50.152;8.182;2023-01-04T11:05:09;5.00;;;2.70;;
31770;SDS011;18343;50.152;8.182;2023-01-04T11:08:01;2.97;;;2.05;;
31770;SDS011;18343;50.152;8.182;2023-01-04T11:10:52;5.28;;;2.80;;
31770;SDS011;18343;50.152;8.182;2023-01-04T11:13:43;3.75;;;2.63;;
31770;SDS011;18343;50.152;8.182;2023-01-04T11:16:28;5.25;;;3.13;;
31770;SDS011;18343;50.152;8.182;2023-01-04T11:19:13;6.40;;;3.03;;
31770;SDS011;18343;50.152;8.182;2023-01-04T11:21:59;3.78;;;2.95;;
31770;SDS011;18343;50.152;8.182;2023-01-04T11:24:54;4.22;;;2.67;;
31770;SDS011;18343;50.152;8.182;2023-01-04T11:27:46;4.43;;;2.60;;
31770;SDS011;18343;50.152;8.182;2023-01-04T11:30:40;5.43;;;2.42;;
31770;SDS011;18343;50.152;8.182;2023-01-04T11:36:37;2.95;;;2.60;;
31770;SDS011;18343;50.152;8.182;2023-01-04T11:39:23;2.75;;;2.35;;
31770;SDS011;18343;50.152;8.182;2023-01-04T11:42:13;4.78;;;2.70;;
31770;SDS011;18343;50.152;8.182;2023-01-04T11:45:05;2.75;;;2.45;;
31770;SDS011;18343;50.152;8.182;2023-01-04T11:48:04;2.85;;;2.55;;
31770;SDS011;18343;50.152;8.182;2023-01-04T11:50:48;3.58;;;2.63;;
31770;SDS011;18343;50.152;8.182;2023-01-04T11:53:34;4.72;;;2.65;;
31770;SDS011;18343;50.152;8.182;2023-01-04T11:56:21;4.35;;;2.88;;
31770;SDS011;18343;50.152;8.182;2023-01-04T11:59:10;2.97;;;2.20;;
31770;SDS011;18343;50.152;8.182;2023-01-04T12:05:08;4.10;;;3.03;;
31770;SDS011;18343;50.152;8.182;2023-01-04T12:08:02;4.38;;;3.00;;
31770;SDS011;18343;50.152;8.182;2023-01-04T12:10:47;5.75;;;3.20;;
31770;SDS011;18343;50.152;8.182;2023-01-04T12:13:32;3.20;;;2.75;;
31770;SDS011;18343;50.152;8.182;2023-01-04T12:16:20;6.32;;;3.08;;
31770;SDS011;18343;50.152;8.182;2023-01-04T12:19:17;3.13;;;2.83;;
31770;SDS011;18343;50.152;8.182;2023-01-04T12:22:03;4.85;;;2.80;;
31770;SDS011;18343;50.152;8.182;2023-01-04T12:25:04;4.80;;;2.78;;
31770;SDS011;18343;50.152;8.182;2023-01-04T12:28:04;4.10;;;2.50;;
31770;SDS011;18343;50.152;8.182;2023-01-04T12:30:49;3.55;;;2.40;;
31770;SDS011;18343;50.152;8.182;2023-01-04T12:33:37;4.25;;;1.85;;
31770;SDS011;18343;50.152;8.182;2023-01-04T12:39:41;3.75;;;2.00;;
31770;SDS011;18343;50.152;8.182;2023-01-04T12:42:28;2.35;;;1.90;;
31770;SDS011;18343;50.152;8.182;2023-01-04T12:45:15;3.42;;;2.15;;
31770;SDS011;18343;50.152;8.182;2023-01-04T12:48:31;2.13;;;1.60;;
31770;SDS011;18343;50.152;8.182;2023-01-04T12:51:17;1.85;;;1.48;;
31770;SDS011;18343;50.152;8.182;2023-01-04T12:54:07;1.60;;;1.20;;
31770;SDS011;18343;50.152;8.182;2023-01-04T12:57:19;2.72;;;1.42;;
31770;SDS011;18343;50.152;8.182;2023-01-04T13:00:07;1.88;;;1.55;;
31770;SDS011;18343;50.152;8.182;2023-01-04T13:06:18;1.95;;;1.30;;
31770;SDS011;18343;50.152;8.182;2023-01-04T13:09:09;2.53;;;1.90;;
31770;SDS011;18343;50.152;8.182;2023-01-04T13:12:07;2.88;;;1.73;;
31770;SDS011;18343;50.152;8.182;2023-01-04T13:15:02;2.58;;;1.30;;
31770;SDS011;18343;50.152;8.182;2023-01-04T13:17:54;2.28;;;1.40;;
31770;SDS011;18343;50.152;8.182;2023-01-04T13:20:41;2.60;;;1.15;;
31770;SDS011;18343;50.152;8.182;2023-01-04T13:23:26;1.77;;;1.10;;
31770;SDS011;18343;50.152;8.182;2023-01-04T13:29:21;1.30;;;0.93;;
31770;SDS011;18343;50.152;8.182;2023-01-04T13:32:08;2.72;;;1.40;;
31770;SDS011;18343;50.152;8.182;2023-01-04T13:34:54;1.40;;;1.17;;
31770;SDS011;18343;50.152;8.182;2023-01-04T13:37:41;1.85;;;1.30;;
31770;SDS011;18343;50.152;8.182;2023-01-04T13:40:28;2.83;;;1.40;;
31770;SDS011;18343;50.152;8.182;2023-01-04T13:43:24;0.98;;;0.88;;
31770;SDS011;18343;50.152;8.182;2023-01-04T13:46:30;0.87;;;0.87;;
31770;SDS011;18343;50.152;8.182;2023-01-04T13:49:15;1.27;;;1.08;;
31770;SDS011;18343;50.152;8.182;2023-01-04T13:52:12;2.95;;;1.00;;
31770;SDS011;18343;50.152;8.182;2023-01-04T13:55:09;1.10;;;1.00;;
31770;SDS011;18343;50.152;8.182;2023-01-04T13:57:55;1.35;;;1.02;;
31770;SDS011;18343;50.152;8.182;2023-01-04T14:00:44;0.88;;;0.85;;
31770;SDS011;18343;50.152;8.182;2023-01-04T14:07:32;1.95;;;1.13;;
31770;SDS011;18343;50.152;8.182;2023-01-04T14:10:17;2.08;;;1.15;;
31770;SDS011;18343;50.152;8.182;2023-01-04T14:13:02;1.45;;;0.90;;
31770;SDS011;18343;50.152;8.182;2023-01-04T14:16:01;0.70;;;0.70;;
31770;SDS011;18343;50.152;8.182;2023-01-04T14:18:48;1.38;;;0.60;;
31770;SDS011;18343;50.152;8.182;2023-01-04T14:21:34;2.13;;;1.00;;
31770;SDS011;18343;50.152;8.182;2023-01-04T14:24:29;1.30;;;1.00;;
31770;SDS011;18343;50.152;8.182;2023-01-04T14:27:31;1.35;;;0.80;;
31770;SDS011;18343;50.152;8.182;2023-01-04T14:30:24;1.17;;;1.00;;
31770;SDS011;18343;50.152;8.182;2023-01-04T14:33:13;1.70;;;0.90;;
31770;SDS011;18343;50.152;8.182;2023-01-04T14:36:02;0.85;;;0.50;;
31770;SDS011;18343;50.152;8.182;2023-01-04T14:38:56;1.15;;;0.50;;
31770;SDS011;18343;50.152;8.182;2023-01-04T14:41:54;0.65;;;0.65;;
31770;SDS011;18343;50.152;8.182;2023-01-04T14:44:39;2.25;;;1.48;;
31770;SDS011;18343;50.152;8.182;2023-01-04T14:47:24;2.03;;;1.02;;
31770;SDS011;18343;50.152;8.182;2023-01-04T14:50:11;2.38;;;1.60;;
31770;SDS011;18343;50.152;8.182;2023-01-04T14:52:56;1.00;;;0.70;;
31770;SDS011;18343;50.152;8.182;2023-01-04T14:55:40;3.10;;;1.80;;
31770;SDS011;18343;50.152;8.182;2023-01-04T14:58:25;2.97;;;2.03;;
31770;SDS011;18343;50.152;8.182;2023-01-04T15:01:10;0.88;;;0.73;;
31770;SDS011;18343;50.152;8.182;2023-01-04T15:03:55;1.85;;;0.40;;
31770;SDS011;18343;50.152;8.182;2023-01-04T15:06:46;1.40;;;1.10;;
31770;SDS011;18343;50.152;8.182;2023-01-04T15:09:33;1.30;;;0.98;;
31770;SDS011;18343;50.152;8.182;2023-01-04T15:12:18;0.60;;;0.50;;
31770;SDS011;18343;50.152;8.182;2023-01-04T15:15:02;0.60;;;0.50;;
31770;SDS011;18343;50.152;8.182;2023-01-04T15:17:48;0.63;;;0.60;;
31770;SDS011;18343;50.152;8.182;2023-01-04T15:20:32;0.60;;;0.60;;
31770;SDS011;18343;50.152;8.182;2023-01-04T15:23:18;1.27;;;0.60;;
31770;SDS011;18343;50.152;8.182;2023-01-04T15:26:04;0.50;;;0.50;;
31770;SDS011;18343;50.152;8.182;2023-01-04T15:28:50;0.95;;;0.50;;
31770;SDS011;18343;50.152;8.182;2023-01-04T15:31:34;0.80;;;0.70;;
31770;SDS011;18343;50.152;8.182;2023-01-04T15:34:19;1.08;;;0.90;;
31770;SDS011;18343;50.152;8.182;2023-01-04T15:37:04;8.18;;;5.68;;
31770;SDS011;18343;50.152;8.182;2023-01-04T15:39:50;0.80;;;0.80;;
31770;SDS011;18343;50.152;8.182;2023-01-04T15:42:35;1.33;;;1.05;;
31770;SDS011;18343;50.152;8.182;2023-01-04T15:45:20;2.28;;;1.50;;
31770;SDS011;18343;50.152;8.182;2023-01-04T15:48:05;1.55;;;1.08;;
31770;SDS011;18343;50.152;8.182;2023-01-04T15:50:52;3.40;;;2.72;;
31770;SDS011;18343;50.152;8.182;2023-01-04T15:53:36;6.13;;;4.47;;
31770;SDS011;18343;50.152;8.182;2023-01-04T15:56:22;1.80;;;1.58;;
31770;SDS011;18343;50.152;8.182;2023-01-04T15:59:09;2.45;;;2.25;;
31770;SDS011;18343;50.152;8.182;2023-01-04T16:01:53;0.77;;;0.77;;
31770;SDS011;18343;50.152;8.182;2023-01-04T16:04:38;1.08;;;0.70;;
31770;SDS011;18343;50.152;8.182;2023-01-04T16:07:22;1.15;;;0.80;;
31770;SDS011;18343;50.152;8.182;2023-01-04T16:10:07;1.55;;;1.23;;
31770;SDS011;18343;50.152;8.182;2023-01-04T16:12:54;2.20;;;1.30;;
31770;SDS011;18343;50.152;8.182;2023-01-04T16:15:38;0.57;;;0.57;;
31770;SDS011;18343;50.152;8.182;2023-01-04T16:18:22;2.22;;;1.25;;
31770;SDS011;18343;50.152;8.182;2023-01-04T16:21:07;2.50;;;1.73;;
31770;SDS011;18343;50.152;8.182;2023-01-04T16:23:53;1.98;;;1.77;;
31770;SDS011;18343;50.152;8.182;2023-01-04T16:26:39;2.30;;;1.48;;
31770;SDS011;18343;50.152;8.182;2023-01-04T16:29:25;1.40;;;1.30;;
31770;SDS011;18343;50.152;8.182;2023-01-04T16:32:09;2.03;;;1.17;;
31770;SDS011;18343;50.152;8.182;2023-01-04T16:34:54;1.38;;;1.00;;
31770;SDS011;18343;50.152;8.182;2023-01-04T16:37:39;1.17;;;1.05;;
31770;SDS011;18343;50.152;8.182;2023-01-04T16:40:24;0.93;;;0.85;;
31770;SDS011;18343;50.152;8.182;2023-01-04T16:43:08;1.95;;;1.17;;
31770;SDS011;18343;50.152;8.182;2023-01-04T16:46:09;2.80;;;0.70;;
31770;SDS011;18343;50.152;8.182;2023-01-04T16:49:01;3.22;;;1.58;;
31770;SDS011;18343;50.152;8.182;2023-01-04T16:51:48;1.13;;;0.82;;
31770;SDS011;18343;50.152;8.182;2023-01-04T16:54:33;1.48;;;1.23;;
31770;SDS011;18343;50.152;8.182;2023-01-04T16:57:17;3.65;;;2.08;;
31770;SDS011;18343;50.152;8.182;2023-01-04T17:00:03;4.22;;;2.70;;
31770;SDS011;18343;50.152;8.182;2023-01-04T17:02:49;2.22;;;1.85;;
31770;SDS011;18343;50.152;8.182;2023-01-04T17:05:37;2.97;;;1.42;;
31770;SDS011;18343;50.152;8.182;2023-01-04T17:08:22;3.00;;;2.10;;
31770;SDS011;18343;50.152;8.182;2023-01-04T17:11:06;2.47;;;2.00;;
31770;SDS011;18343;50.152;8.182;2023-01-04T17:13:53;2.53;;;2.30;;
31770;SDS011;18343;50.152;8.182;2023-01-04T17:16:38;6.43;;;3.80;;